메인 페이지
METAR-TAF:

METAR-TAF

공항 :

Durango-La Plata County Airport

Durango, 콜로라도, 미국

위도: 37-08-35N, 경도: 107-45-35W, 고도: 2038m

현재 날씨관측

예보는 1 시간 11분 전, 10:53시(UTC)에 발표되었습니다.
북북동5kt
온도 -12°C
습도 100%
기압 1026 hPa
시정: 16.1km
맑음

METAR: KDRO 201053Z AUTO 02005KT 10SM CLR M12/M12 A3031 RMK AO2 SLP317 T11171122 $

시각: 05:04 (12:04 UTC)

예보

예보는 42분 전, 11:22시(UTC)에 발표되었습니다.
예보 대상 시간: 20일 12시부터 21일 12시까지 (UTC)
북북동5kt
시정: 10km
맑음
21일 0000시부터 (UTC)
동북동3kt
시정: 10km
고도 25000ft 상공 구름 많음
21일 0700시부터 (UTC)
북동5kt
시정: 10km
고도 10000ft 상공 구름 조금
고도 20000ft 상공 구름 보통

TAF: KDRO 201122Z 2012/2112 02005KT P6SM SKC FM210000 07003KT P6SM BKN250 FM210700 05005KT P6SM FEW100 SCT200

4,000개 이상의 공항 관측 자료 및 예보 (METAR 및 TAF 보고).

지도상에서 검색 가능한 기상관측소가 노란 점과 빨간 점으로 표시되어 있습니다.

기상관측소 명을 보려면 표시 위로 마우스를 이동하세요.

날씨 관측과 예보를 보려면 클릭하세요.

지도 변경 : 확대하려면 엑스 표시가 있는 녹색 버튼, 축소하려면 빼기 표시가 있는 녹색 버튼, 다음 페이지의 지도를 보려면 녹색 화살표를 클릭하세요.


METAR-TAF: